sensor_id;sensor_type;location;lat;lon;timestamp;temperature;humidity
1137;DHT22;557;48.466;7.950;2024-01-07T00:01:14;4.90;99.90
1137;DHT22;557;48.466;7.950;2024-01-07T00:03:41;4.90;99.90
1137;DHT22;557;48.466;7.950;2024-01-07T00:06:10;4.90;99.90
1137;DHT22;557;48.466;7.950;2024-01-07T00:08:36;4.90;99.90
1137;DHT22;557;48.466;7.950;2024-01-07T00:11:03;4.90;99.90
1137;DHT22;557;48.466;7.950;2024-01-07T00:13:32;4.90;99.90
1137;DHT22;557;48.466;7.950;2024-01-07T00:15:59;4.80;99.90
1137;DHT22;557;48.466;7.950;2024-01-07T00:18:31;4.80;99.90
1137;DHT22;557;48.466;7.950;2024-01-07T00:21:01;4.80;99.90
1137;DHT22;557;48.466;7.950;2024-01-07T00:23:34;4.80;99.90
1137;DHT22;557;48.466;7.950;2024-01-07T00:26:01;4.80;99.90
1137;DHT22;557;48.466;7.950;2024-01-07T00:28:29;4.80;99.90
1137;DHT22;557;48.466;7.950;2024-01-07T00:30:56;4.80;99.90
1137;DHT22;557;48.466;7.950;2024-01-07T00:33:26;4.80;99.90
1137;DHT22;557;48.466;7.950;2024-01-07T00:35:57;4.70;99.90
1137;DHT22;557;48.466;7.950;2024-01-07T00:38:24;4.70;99.90
1137;DHT22;557;48.466;7.950;2024-01-07T00:40:52;4.70;99.90
1137;DHT22;557;48.466;7.950;2024-01-07T00:43:22;4.70;99.90
1137;DHT22;557;48.466;7.950;2024-01-07T00:45:49;4.70;99.90
1137;DHT22;557;48.466;7.950;2024-01-07T00:48:16;4.70;99.90
1137;DHT22;557;48.466;7.950;2024-01-07T00:50:42;4.70;99.90
1137;DHT22;557;48.466;7.950;2024-01-07T00:53:09;4.60;99.90
1137;DHT22;557;48.466;7.950;2024-01-07T00:55:36;4.60;99.90
1137;DHT22;557;48.466;7.950;2024-01-07T00:58:04;4.60;99.90
1137;DHT22;557;48.466;7.950;2024-01-07T01:00:31;4.50;99.90
1137;DHT22;557;48.466;7.950;2024-01-07T01:02:58;4.60;99.90
1137;DHT22;557;48.466;7.950;2024-01-07T01:05:26;4.60;99.90
1137;DHT22;557;48.466;7.950;2024-01-07T01:07:53;4.60;99.90
1137;DHT22;557;48.466;7.950;2024-01-07T01:10:20;4.60;99.90
1137;DHT22;557;48.466;7.950;2024-01-07T01:12:46;4.60;99.90
1137;DHT22;557;48.466;7.950;2024-01-07T01:15:15;4.50;99.90
1137;DHT22;557;48.466;7.950;2024-01-07T01:17:42;4.50;99.90
1137;DHT22;557;48.466;7.950;2024-01-07T01:20:10;4.50;99.90
1137;DHT22;557;48.466;7.950;2024-01-07T01:22:37;4.50;99.90
1137;DHT22;557;48.466;7.950;2024-01-07T01:25:05;4.50;99.90
1137;DHT22;557;48.466;7.950;2024-01-07T01:27:32;4.50;99.90
1137;DHT22;557;48.466;7.950;2024-01-07T01:29:59;4.40;99.90
1137;DHT22;557;48.466;7.950;2024-01-07T01:32:27;4.50;99.90
1137;DHT22;557;48.466;7.950;2024-01-07T01:34:54;4.50;99.90
1137;DHT22;557;48.466;7.950;2024-01-07T01:37:21;4.50;99.90
1137;DHT22;557;48.466;7.950;2024-01-07T01:39:48;4.50;99.90
1137;DHT22;557;48.466;7.950;2024-01-07T01:42:15;4.50;99.90
1137;DHT22;557;48.466;7.950;2024-01-07T01:44:42;4.50;99.90
1137;DHT22;557;48.466;7.950;2024-01-07T01:47:10;4.50;99.90
1137;DHT22;557;48.466;7.950;2024-01-07T01:49:39;4.50;99.90
1137;DHT22;557;48.466;7.950;2024-01-07T01:52:06;4.50;99.90
1137;DHT22;557;48.466;7.950;2024-01-07T01:54:33;4.50;99.90
1137;DHT22;557;48.466;7.950;2024-01-07T01:57:00;4.50;99.90
1137;DHT22;557;48.466;7.950;2024-01-07T01:59:28;4.50;99.90
1137;DHT22;557;48.466;7.950;2024-01-07T02:01:55;4.60;99.90
1137;DHT22;557;48.466;7.950;2024-01-07T02:04:22;4.60;99.90
1137;DHT22;557;48.466;7.950;2024-01-07T02:06:50;4.60;99.90
1137;DHT22;557;48.466;7.950;2024-01-07T02:09:17;4.60;99.90
1137;DHT22;557;48.466;7.950;2024-01-07T02:11:43;4.60;99.90
1137;DHT22;557;48.466;7.950;2024-01-07T02:14:10;4.60;99.90
1137;DHT22;557;48.466;7.950;2024-01-07T02:16:37;4.60;99.90
1137;DHT22;557;48.466;7.950;2024-01-07T02:19:05;4.60;99.90
1137;DHT22;557;48.466;7.950;2024-01-07T02:21:32;4.60;99.90
1137;DHT22;557;48.466;7.950;2024-01-07T02:24:05;4.60;99.90
1137;DHT22;557;48.466;7.950;2024-01-07T02:26:32;4.60;99.90
1137;DHT22;557;48.466;7.950;2024-01-07T02:28:59;4.60;99.90
1137;DHT22;557;48.466;7.950;2024-01-07T02:31:26;4.60;99.90
1137;DHT22;557;48.466;7.950;2024-01-07T02:33:52;4.60;99.90
1137;DHT22;557;48.466;7.950;2024-01-07T02:36:19;4.60;99.90
1137;DHT22;557;48.466;7.950;2024-01-07T02:38:47;4.60;99.90
1137;DHT22;557;48.466;7.950;2024-01-07T02:41:15;4.60;99.90
1137;DHT22;557;48.466;7.950;2024-01-07T02:43:42;4.60;99.90
1137;DHT22;557;48.466;7.950;2024-01-07T02:46:09;4.60;99.90
1137;DHT22;557;48.466;7.950;2024-01-07T02:48:36;4.60;99.90
1137;DHT22;557;48.466;7.950;2024-01-07T02:51:02;4.60;99.90
1137;DHT22;557;48.466;7.950;2024-01-07T02:53:31;4.60;99.90
1137;DHT22;557;48.466;7.950;2024-01-07T02:55:57;4.60;99.90
1137;DHT22;557;48.466;7.950;2024-01-07T02:58:26;4.60;99.90
1137;DHT22;557;48.466;7.950;2024-01-07T03:00:52;4.50;99.90
1137;DHT22;557;48.466;7.950;2024-01-07T03:03:19;4.50;99.90
1137;DHT22;557;48.466;7.950;2024-01-07T03:05:46;4.50;99.90
1137;DHT22;557;48.466;7.950;2024-01-07T03:08:14;4.50;99.90
1137;DHT22;557;48.466;7.950;2024-01-07T03:10:41;4.50;99.90
1137;DHT22;557;48.466;7.950;2024-01-07T03:13:08;4.50;99.90
1137;DHT22;557;48.466;7.950;2024-01-07T03:15:36;4.50;99.90
1137;DHT22;557;48.466;7.950;2024-01-07T03:18:04;4.50;99.90
1137;DHT22;557;48.466;7.950;2024-01-07T03:20:30;4.50;99.90
1137;DHT22;557;48.466;7.950;2024-01-07T03:23:00;4.50;99.90
1137;DHT22;557;48.466;7.950;2024-01-07T03:25:27;4.50;99.90
1137;DHT22;557;48.466;7.950;2024-01-07T03:27:53;4.40;99.90
1137;DHT22;557;48.466;7.950;2024-01-07T03:30:22;4.40;99.90
1137;DHT22;557;48.466;7.950;2024-01-07T03:32:50;4.40;99.90
1137;DHT22;557;48.466;7.950;2024-01-07T03:35:17;4.40;99.90
1137;DHT22;557;48.466;7.950;2024-01-07T03:37:44;4.40;99.90
1137;DHT22;557;48.466;7.950;2024-01-07T03:40:11;4.40;99.90
1137;DHT22;557;48.466;7.950;2024-01-07T03:42:38;4.30;99.90
1137;DHT22;557;48.466;7.950;2024-01-07T03:45:05;4.40;99.90
1137;DHT22;557;48.466;7.950;2024-01-07T03:47:32;4.30;99.90
1137;DHT22;557;48.466;7.950;2024-01-07T03:50:00;4.30;99.90
1137;DHT22;557;48.466;7.950;2024-01-07T03:52:27;4.30;99.90
1137;DHT22;557;48.466;7.950;2024-01-07T03:54:55;4.30;99.90
1137;DHT22;557;48.466;7.950;2024-01-07T03:57:22;4.30;99.90
1137;DHT22;557;48.466;7.950;2024-01-07T03:59:49;4.30;99.90
1137;DHT22;557;48.466;7.950;2024-01-07T04:02:16;4.30;99.90
1137;DHT22;557;48.466;7.950;2024-01-07T04:04:42;4.30;99.90
1137;DHT22;557;48.466;7.950;2024-01-07T04:07:11;4.30;99.90
1137;DHT22;557;48.466;7.950;2024-01-07T04:09:37;4.30;99.90
1137;DHT22;557;48.466;7.950;2024-01-07T04:12:05;4.20;99.90
1137;DHT22;557;48.466;7.950;2024-01-07T04:14:32;4.30;99.90
1137;DHT22;557;48.466;7.950;2024-01-07T04:16:59;4.20;99.90
1137;DHT22;557;48.466;7.950;2024-01-07T04:19:26;4.20;99.90
1137;DHT22;557;48.466;7.950;2024-01-07T04:21:52;4.20;99.90
1137;DHT22;557;48.466;7.950;2024-01-07T04:24:21;4.20;99.90
1137;DHT22;557;48.466;7.950;2024-01-07T04:26:47;4.20;99.90
1137;DHT22;557;48.466;7.950;2024-01-07T04:29:14;4.20;99.90
1137;DHT22;557;48.466;7.950;2024-01-07T04:31:41;4.20;99.90
1137;DHT22;557;48.466;7.950;2024-01-07T04:34:08;4.20;99.90
1137;DHT22;557;48.466;7.950;2024-01-07T04:36:35;4.20;99.90
1137;DHT22;557;48.466;7.950;2024-01-07T04:39:02;4.20;99.90
1137;DHT22;557;48.466;7.950;2024-01-07T04:41:30;4.20;99.90
1137;DHT22;557;48.466;7.950;2024-01-07T04:43:57;4.20;99.90
1137;DHT22;557;48.466;7.950;2024-01-07T04:46:23;4.20;99.90
1137;DHT22;557;48.466;7.950;2024-01-07T04:48:52;4.20;99.90
1137;DHT22;557;48.466;7.950;2024-01-07T04:51:19;4.20;99.90
1137;DHT22;557;48.466;7.950;2024-01-07T04:53:46;4.20;99.90
1137;DHT22;557;48.466;7.950;2024-01-07T04:56:13;4.20;99.90
1137;DHT22;557;48.466;7.950;2024-01-07T04:58:41;4.20;99.90
1137;DHT22;557;48.466;7.950;2024-01-07T05:01:08;4.20;99.90
1137;DHT22;557;48.466;7.950;2024-01-07T05:03:35;4.20;99.90
1137;DHT22;557;48.466;7.950;2024-01-07T05:06:03;4.20;99.90
1137;DHT22;557;48.466;7.950;2024-01-07T05:08:30;4.20;99.90
1137;DHT22;557;48.466;7.950;2024-01-07T05:10:57;4.20;99.90
1137;DHT22;557;48.466;7.950;2024-01-07T05:13:24;4.20;99.90
1137;DHT22;557;48.466;7.950;2024-01-07T05:15:52;4.20;99.90
1137;DHT22;557;48.466;7.950;2024-01-07T05:18:20;4.20;99.90
1137;DHT22;557;48.466;7.950;2024-01-07T05:20:47;4.10;99.90
1137;DHT22;557;48.466;7.950;2024-01-07T05:23:15;4.20;99.90
1137;DHT22;557;48.466;7.950;2024-01-07T05:25:45;4.20;99.90
1137;DHT22;557;48.466;7.950;2024-01-07T05:28:13;4.20;99.90
1137;DHT22;557;48.466;7.950;2024-01-07T05:30:40;4.20;99.90
1137;DHT22;557;48.466;7.950;2024-01-07T05:33:09;4.20;99.90
1137;DHT22;557;48.466;7.950;2024-01-07T05:35:36;4.20;99.90
1137;DHT22;557;48.466;7.950;2024-01-07T05:38:03;4.20;99.90
1137;DHT22;557;48.466;7.950;2024-01-07T05:40:30;4.10;99.90
1137;DHT22;557;48.466;7.950;2024-01-07T05:42:56;4.10;99.90
1137;DHT22;557;48.466;7.950;2024-01-07T05:45:23;4.20;99.90
1137;DHT22;557;48.466;7.950;2024-01-07T05:47:50;4.10;99.90
1137;DHT22;557;48.466;7.950;2024-01-07T05:50:18;4.10;99.90
1137;DHT22;557;48.466;7.950;2024-01-07T05:52:46;4.20;99.90
1137;DHT22;557;48.466;7.950;2024-01-07T05:55:13;4.20;99.90
1137;DHT22;557;48.466;7.950;2024-01-07T05:57:40;4.20;99.90
1137;DHT22;557;48.466;7.950;2024-01-07T06:00:07;4.20;99.90
1137;DHT22;557;48.466;7.950;2024-01-07T06:02:36;4.20;99.90
1137;DHT22;557;48.466;7.950;2024-01-07T06:05:03;4.20;99.90
1137;DHT22;557;48.466;7.950;2024-01-07T06:07:31;4.20;99.90
1137;DHT22;557;48.466;7.950;2024-01-07T06:09:59;4.20;99.90
1137;DHT22;557;48.466;7.950;2024-01-07T06:12:26;4.20;99.90
1137;DHT22;557;48.466;7.950;2024-01-07T06:14:53;4.20;99.90
1137;DHT22;557;48.466;7.950;2024-01-07T06:17:20;4.20;99.90
1137;DHT22;557;48.466;7.950;2024-01-07T06:19:47;4.30;99.90
1137;DHT22;557;48.466;7.950;2024-01-07T06:22:13;4.20;99.90
1137;DHT22;557;48.466;7.950;2024-01-07T06:24:42;4.20;99.90
1137;DHT22;557;48.466;7.950;2024-01-07T06:27:08;4.20;99.90
1137;DHT22;557;48.466;7.950;2024-01-07T06:29:35;4.20;99.90
1137;DHT22;557;48.466;7.950;2024-01-07T06:32:02;4.30;99.90
1137;DHT22;557;48.466;7.950;2024-01-07T06:34:29;4.30;99.90
1137;DHT22;557;48.466;7.950;2024-01-07T06:36:56;4.30;99.90
1137;DHT22;557;48.466;7.950;2024-01-07T06:39:23;4.30;99.90
1137;DHT22;557;48.466;7.950;2024-01-07T06:41:52;4.20;99.90
1137;DHT22;557;48.466;7.950;2024-01-07T06:44:19;4.20;99.90
1137;DHT22;557;48.466;7.950;2024-01-07T06:46:46;4.20;99.90
1137;DHT22;557;48.466;7.950;2024-01-07T06:49:12;4.20;99.90
1137;DHT22;557;48.466;7.950;2024-01-07T06:51:39;4.20;99.90
1137;DHT22;557;48.466;7.950;2024-01-07T06:54:06;4.20;99.90
1137;DHT22;557;48.466;7.950;2024-01-07T06:56:33;4.20;99.90
1137;DHT22;557;48.466;7.950;2024-01-07T06:59:01;4.10;99.90
1137;DHT22;557;48.466;7.950;2024-01-07T07:01:28;4.20;99.90
1137;DHT22;557;48.466;7.950;2024-01-07T07:03:55;4.20;99.90
1137;DHT22;557;48.466;7.950;2024-01-07T07:06:21;4.20;99.90
1137;DHT22;557;48.466;7.950;2024-01-07T07:08:48;4.20;99.90
1137;DHT22;557;48.466;7.950;2024-01-07T07:11:16;4.20;99.90
1137;DHT22;557;48.466;7.950;2024-01-07T07:13:43;4.20;99.90
1137;DHT22;557;48.466;7.950;2024-01-07T07:16:11;4.20;99.90
1137;DHT22;557;48.466;7.950;2024-01-07T07:18:39;4.20;99.90
1137;DHT22;557;48.466;7.950;2024-01-07T07:21:06;4.10;99.90
1137;DHT22;557;48.466;7.950;2024-01-07T07:23:33;4.10;99.90
1137;DHT22;557;48.466;7.950;2024-01-07T07:26:00;4.20;99.90
1137;DHT22;557;48.466;7.950;2024-01-07T07:28:26;4.20;99.90
1137;DHT22;557;48.466;7.950;2024-01-07T07:30:53;4.20;99.90
1137;DHT22;557;48.466;7.950;2024-01-07T07:33:22;4.10;99.90
1137;DHT22;557;48.466;7.950;2024-01-07T07:35:49;4.20;99.90
1137;DHT22;557;48.466;7.950;2024-01-07T07:38:17;4.20;99.90
1137;DHT22;557;48.466;7.950;2024-01-07T07:40:44;4.20;99.90
1137;DHT22;557;48.466;7.950;2024-01-07T07:43:18;4.20;99.90
1137;DHT22;557;48.466;7.950;2024-01-07T07:45:45;4.30;99.90
1137;DHT22;557;48.466;7.950;2024-01-07T07:48:11;4.30;99.90
1137;DHT22;557;48.466;7.950;2024-01-07T07:50:40;4.30;99.90
1137;DHT22;557;48.466;7.950;2024-01-07T07:53:06;4.30;99.90
1137;DHT22;557;48.466;7.950;2024-01-07T07:55:34;4.30;99.90
1137;DHT22;557;48.466;7.950;2024-01-07T07:58:01;4.20;99.90
1137;DHT22;557;48.466;7.950;2024-01-07T08:00:28;4.30;99.90
1137;DHT22;557;48.466;7.950;2024-01-07T08:02:55;4.30;99.90
1137;DHT22;557;48.466;7.950;2024-01-07T08:05:21;4.30;99.90
1137;DHT22;557;48.466;7.950;2024-01-07T08:07:50;4.30;99.90
1137;DHT22;557;48.466;7.950;2024-01-07T08:10:16;4.30;99.90
1137;DHT22;557;48.466;7.950;2024-01-07T08:12:43;4.30;99.90
1137;DHT22;557;48.466;7.950;2024-01-07T08:15:11;4.30;99.90
1137;DHT22;557;48.466;7.950;2024-01-07T08:17:38;4.30;99.90
1137;DHT22;557;48.466;7.950;2024-01-07T08:20:06;4.30;99.90
1137;DHT22;557;48.466;7.950;2024-01-07T08:22:34;4.30;99.90
1137;DHT22;557;48.466;7.950;2024-01-07T08:25:02;4.40;99.90
1137;DHT22;557;48.466;7.950;2024-01-07T08:27:29;4.40;99.90
1137;DHT22;557;48.466;7.950;2024-01-07T08:29:58;4.40;99.90
1137;DHT22;557;48.466;7.950;2024-01-07T08:32:24;4.40;99.90
1137;DHT22;557;48.466;7.950;2024-01-07T08:34:51;4.40;99.90
1137;DHT22;557;48.466;7.950;2024-01-07T08:37:18;4.40;99.90
1137;DHT22;557;48.466;7.950;2024-01-07T08:39:45;4.40;99.90
1137;DHT22;557;48.466;7.950;2024-01-07T08:42:13;4.40;99.90
1137;DHT22;557;48.466;7.950;2024-01-07T08:44:40;4.50;99.90
1137;DHT22;557;48.466;7.950;2024-01-07T08:47:07;4.50;99.90
1137;DHT22;557;48.466;7.950;2024-01-07T08:49:34;4.50;99.90
1137;DHT22;557;48.466;7.950;2024-01-07T08:52:01;4.50;99.90
1137;DHT22;557;48.466;7.950;2024-01-07T08:54:28;4.50;99.90
1137;DHT22;557;48.466;7.950;2024-01-07T08:56:55;4.50;99.90
1137;DHT22;557;48.466;7.950;2024-01-07T08:59:23;4.50;99.90
1137;DHT22;557;48.466;7.950;2024-01-07T09:01:50;4.50;99.90
1137;DHT22;557;48.466;7.950;2024-01-07T09:04:17;4.50;99.90
1137;DHT22;557;48.466;7.950;2024-01-07T09:06:44;4.50;99.90
1137;DHT22;557;48.466;7.950;2024-01-07T09:09:11;4.60;99.90
1137;DHT22;557;48.466;7.950;2024-01-07T09:11:38;4.60;99.90
1137;DHT22;557;48.466;7.950;2024-01-07T09:14:05;4.60;99.90
1137;DHT22;557;48.466;7.950;2024-01-07T09:16:33;4.60;99.90
1137;DHT22;557;48.466;7.950;2024-01-07T09:19:00;4.60;99.90
1137;DHT22;557;48.466;7.950;2024-01-07T09:21:27;4.70;99.90
1137;DHT22;557;48.466;7.950;2024-01-07T09:23:54;4.70;99.90
1137;DHT22;557;48.466;7.950;2024-01-07T09:26:21;4.60;99.90
1137;DHT22;557;48.466;7.950;2024-01-07T09:28:48;4.70;99.90
1137;DHT22;557;48.466;7.950;2024-01-07T09:31:21;4.60;99.90
1137;DHT22;557;48.466;7.950;2024-01-07T09:33:49;4.70;99.90
1137;DHT22;557;48.466;7.950;2024-01-07T09:36:17;4.70;99.90
1137;DHT22;557;48.466;7.950;2024-01-07T09:38:50;4.70;99.90
1137;DHT22;557;48.466;7.950;2024-01-07T09:41:19;4.70;99.90
1137;DHT22;557;48.466;7.950;2024-01-07T09:43:46;4.70;99.90
1137;DHT22;557;48.466;7.950;2024-01-07T09:46:14;4.70;99.90
1137;DHT22;557;48.466;7.950;2024-01-07T09:48:41;4.70;99.90
1137;DHT22;557;48.466;7.950;2024-01-07T09:51:10;4.70;99.90
1137;DHT22;557;48.466;7.950;2024-01-07T09:53:39;4.70;99.90
1137;DHT22;557;48.466;7.950;2024-01-07T09:56:11;4.70;99.90
1137;DHT22;557;48.466;7.950;2024-01-07T09:58:41;4.80;99.90
1137;DHT22;557;48.466;7.950;2024-01-07T10:01:08;4.80;99.90
1137;DHT22;557;48.466;7.950;2024-01-07T10:03:35;4.80;99.90
1137;DHT22;557;48.466;7.950;2024-01-07T10:06:03;4.80;99.90
1137;DHT22;557;48.466;7.950;2024-01-07T10:08:32;4.80;99.90
1137;DHT22;557;48.466;7.950;2024-01-07T10:10:59;4.80;99.90
1137;DHT22;557;48.466;7.950;2024-01-07T10:13:27;4.80;99.90
1137;DHT22;557;48.466;7.950;2024-01-07T10:15:54;4.90;99.90
1137;DHT22;557;48.466;7.950;2024-01-07T10:18:21;4.90;99.90
1137;DHT22;557;48.466;7.950;2024-01-07T10:20:48;5.00;99.90
1137;DHT22;557;48.466;7.950;2024-01-07T10:23:26;5.00;99.90
1137;DHT22;557;48.466;7.950;2024-01-07T10:25:55;5.00;99.90
1137;DHT22;557;48.466;7.950;2024-01-07T10:28:22;5.10;99.90
1137;DHT22;557;48.466;7.950;2024-01-07T10:30:49;5.20;99.90
1137;DHT22;557;48.466;7.950;2024-01-07T10:33:20;5.20;99.90
1137;DHT22;557;48.466;7.950;2024-01-07T10:35:52;5.30;99.90
1137;DHT22;557;48.466;7.950;2024-01-07T10:38:24;5.30;99.90
1137;DHT22;557;48.466;7.950;2024-01-07T10:40:52;5.40;99.90
1137;DHT22;557;48.466;7.950;2024-01-07T10:43:23;5.40;99.90
1137;DHT22;557;48.466;7.950;2024-01-07T10:45:50;5.40;99.90
1137;DHT22;557;48.466;7.950;2024-01-07T10:48:18;5.50;99.90
1137;DHT22;557;48.466;7.950;2024-01-07T10:50:47;5.40;99.90
1137;DHT22;557;48.466;7.950;2024-01-07T10:53:18;5.40;99.90
1137;DHT22;557;48.466;7.950;2024-01-07T10:55:52;5.50;99.90
1137;DHT22;557;48.466;7.950;2024-01-07T10:58:24;5.50;99.90
1137;DHT22;557;48.466;7.950;2024-01-07T11:00:51;5.50;99.90
1137;DHT22;557;48.466;7.950;2024-01-07T11:03:27;5.50;99.90
1137;DHT22;557;48.466;7.950;2024-01-07T11:05:59;5.60;99.90
1137;DHT22;557;48.466;7.950;2024-01-07T11:08:32;5.60;99.90
1137;DHT22;557;48.466;7.950;2024-01-07T11:11:06;5.70;99.90
1137;DHT22;557;48.466;7.950;2024-01-07T11:13:36;5.80;99.90
1137;DHT22;557;48.466;7.950;2024-01-07T11:16:04;5.80;99.90
1137;DHT22;557;48.466;7.950;2024-01-07T11:18:38;5.80;99.90
1137;DHT22;557;48.466;7.950;2024-01-07T11:21:05;5.80;99.90
1137;DHT22;557;48.466;7.950;2024-01-07T11:23:34;5.80;99.90
1137;DHT22;557;48.466;7.950;2024-01-07T11:26:03;5.90;99.90
1137;DHT22;557;48.466;7.950;2024-01-07T11:28:46;6.00;99.90
1137;DHT22;557;48.466;7.950;2024-01-07T11:31:13;6.10;99.90
1137;DHT22;557;48.466;7.950;2024-01-07T11:33:42;6.10;99.90
1137;DHT22;557;48.466;7.950;2024-01-07T11:36:11;6.20;99.90
1137;DHT22;557;48.466;7.950;2024-01-07T11:38:42;6.20;99.90
1137;DHT22;557;48.466;7.950;2024-01-07T11:41:11;6.20;99.90
1137;DHT22;557;48.466;7.950;2024-01-07T11:43:37;6.20;99.90
1137;DHT22;557;48.466;7.950;2024-01-07T11:46:06;6.10;99.90
1137;DHT22;557;48.466;7.950;2024-01-07T11:48:33;6.10;99.90
1137;DHT22;557;48.466;7.950;2024-01-07T11:50:59;6.00;99.90
1137;DHT22;557;48.466;7.950;2024-01-07T11:53:27;6.00;99.90
1137;DHT22;557;48.466;7.950;2024-01-07T11:55:54;5.90;99.90
1137;DHT22;557;48.466;7.950;2024-01-07T11:58:21;5.80;99.90
1137;DHT22;557;48.466;7.950;2024-01-07T12:00:48;5.80;99.90
1137;DHT22;557;48.466;7.950;2024-01-07T12:03:16;5.90;99.90
1137;DHT22;557;48.466;7.950;2024-01-07T12:05:44;5.90;99.90
1137;DHT22;557;48.466;7.950;2024-01-07T12:08:14;5.90;99.90
1137;DHT22;557;48.466;7.950;2024-01-07T12:10:42;6.00;99.90
1137;DHT22;557;48.466;7.950;2024-01-07T12:13:09;6.20;99.90
1137;DHT22;557;48.466;7.950;2024-01-07T12:15:39;6.20;99.90
1137;DHT22;557;48.466;7.950;2024-01-07T12:18:09;6.20;99.90
1137;DHT22;557;48.466;7.950;2024-01-07T12:20:56;6.10;99.90
1137;DHT22;557;48.466;7.950;2024-01-07T12:23:23;6.20;99.90
1137;DHT22;557;48.466;7.950;2024-01-07T12:25:50;6.20;99.90
1137;DHT22;557;48.466;7.950;2024-01-07T12:28:19;6.10;99.90
1137;DHT22;557;48.466;7.950;2024-01-07T12:34:07;5.90;99.90
1137;DHT22;557;48.466;7.950;2024-01-07T12:36:38;5.90;99.90
1137;DHT22;557;48.466;7.950;2024-01-07T12:39:06;5.80;99.90
1137;DHT22;557;48.466;7.950;2024-01-07T12:41:33;5.70;99.90
1137;DHT22;557;48.466;7.950;2024-01-07T12:44:01;5.60;99.90
1137;DHT22;557;48.466;7.950;2024-01-07T12:46:41;5.60;99.90
1137;DHT22;557;48.466;7.950;2024-01-07T12:49:08;5.50;99.90
1137;DHT22;557;48.466;7.950;2024-01-07T12:51:34;5.50;99.90
1137;DHT22;557;48.466;7.950;2024-01-07T12:54:04;5.50;99.90
1137;DHT22;557;48.466;7.950;2024-01-07T12:56:32;5.50;99.90
1137;DHT22;557;48.466;7.950;2024-01-07T12:58:59;5.50;99.90
1137;DHT22;557;48.466;7.950;2024-01-07T13:01:27;5.40;99.90
1137;DHT22;557;48.466;7.950;2024-01-07T13:03:56;5.40;99.90
1137;DHT22;557;48.466;7.950;2024-01-07T13:06:24;5.40;99.90
1137;DHT22;557;48.466;7.950;2024-01-07T13:08:51;5.40;99.90
1137;DHT22;557;48.466;7.950;2024-01-07T13:11:19;5.40;99.90
1137;DHT22;557;48.466;7.950;2024-01-07T13:13:47;5.30;99.90
1137;DHT22;557;48.466;7.950;2024-01-07T13:16:14;5.30;99.90
1137;DHT22;557;48.466;7.950;2024-01-07T13:18:43;5.20;99.90
1137;DHT22;557;48.466;7.950;2024-01-07T13:21:10;5.10;99.90
1137;DHT22;557;48.466;7.950;2024-01-07T13:23:38;5.10;99.90
1137;DHT22;557;48.466;7.950;2024-01-07T13:26:10;5.10;99.90
1137;DHT22;557;48.466;7.950;2024-01-07T13:28:39;5.10;99.90
1137;DHT22;557;48.466;7.950;2024-01-07T13:31:07;5.10;99.90
1137;DHT22;557;48.466;7.950;2024-01-07T13:33:33;5.10;99.90
1137;DHT22;557;48.466;7.950;2024-01-07T13:36:01;5.10;99.90
1137;DHT22;557;48.466;7.950;2024-01-07T13:38:29;5.00;99.90
1137;DHT22;557;48.466;7.950;2024-01-07T13:40:58;5.00;99.90
1137;DHT22;557;48.466;7.950;2024-01-07T13:43:27;5.00;99.90
1137;DHT22;557;48.466;7.950;2024-01-07T13:46:29;5.00;99.90
1137;DHT22;557;48.466;7.950;2024-01-07T13:49:04;4.90;99.90
1137;DHT22;557;48.466;7.950;2024-01-07T13:51:33;4.90;99.90
1137;DHT22;557;48.466;7.950;2024-01-07T13:54:03;4.90;99.90
1137;DHT22;557;48.466;7.950;2024-01-07T13:56:30;4.80;99.90
1137;DHT22;557;48.466;7.950;2024-01-07T13:58:56;4.80;99.90
1137;DHT22;557;48.466;7.950;2024-01-07T14:01:24;4.80;99.90
1137;DHT22;557;48.466;7.950;2024-01-07T14:03:53;4.80;99.90
1137;DHT22;557;48.466;7.950;2024-01-07T14:06:20;4.80;99.90
1137;DHT22;557;48.466;7.950;2024-01-07T14:08:47;4.70;99.90
1137;DHT22;557;48.466;7.950;2024-01-07T14:11:14;4.80;99.90
1137;DHT22;557;48.466;7.950;2024-01-07T14:13:41;4.70;99.90
1137;DHT22;557;48.466;7.950;2024-01-07T14:16:10;4.60;99.90
1137;DHT22;557;48.466;7.950;2024-01-07T14:18:39;4.60;99.90
1137;DHT22;557;48.466;7.950;2024-01-07T14:21:07;4.60;99.90
1137;DHT22;557;48.466;7.950;2024-01-07T14:23:35;4.60;99.90
1137;DHT22;557;48.466;7.950;2024-01-07T14:26:02;4.50;99.90
1137;DHT22;557;48.466;7.950;2024-01-07T14:28:29;4.40;99.90
1137;DHT22;557;48.466;7.950;2024-01-07T14:30:56;4.40;99.90
1137;DHT22;557;48.466;7.950;2024-01-07T14:33:23;4.40;99.90
1137;DHT22;557;48.466;7.950;2024-01-07T14:35:50;4.40;99.90
1137;DHT22;557;48.466;7.950;2024-01-07T14:38:19;4.40;99.90
1137;DHT22;557;48.466;7.950;2024-01-07T14:40:46;4.40;99.90
1137;DHT22;557;48.466;7.950;2024-01-07T14:43:13;4.40;99.90
1137;DHT22;557;48.466;7.950;2024-01-07T14:45:40;4.40;99.90
1137;DHT22;557;48.466;7.950;2024-01-07T14:48:07;4.40;99.90
1137;DHT22;557;48.466;7.950;2024-01-07T14:50:34;4.40;99.90
1137;DHT22;557;48.466;7.950;2024-01-07T14:53:01;4.40;99.90
1137;DHT22;557;48.466;7.950;2024-01-07T14:55:29;4.30;99.90
1137;DHT22;557;48.466;7.950;2024-01-07T14:57:56;4.30;99.90
1137;DHT22;557;48.466;7.950;2024-01-07T15:00:23;4.20;99.90
1137;DHT22;557;48.466;7.950;2024-01-07T15:02:50;4.20;99.90
1137;DHT22;557;48.466;7.950;2024-01-07T15:05:17;4.10;99.90
1137;DHT22;557;48.466;7.950;2024-01-07T15:07:44;4.00;99.90
1137;DHT22;557;48.466;7.950;2024-01-07T15:10:15;3.90;99.90
1137;DHT22;557;48.466;7.950;2024-01-07T15:12:45;3.90;99.90
1137;DHT22;557;48.466;7.950;2024-01-07T15:15:14;3.90;99.90
1137;DHT22;557;48.466;7.950;2024-01-07T15:17:41;3.80;99.90
1137;DHT22;557;48.466;7.950;2024-01-07T15:20:09;3.80;99.90
1137;DHT22;557;48.466;7.950;2024-01-07T15:22:37;3.80;99.90
1137;DHT22;557;48.466;7.950;2024-01-07T15:25:05;3.70;99.90
1137;DHT22;557;48.466;7.950;2024-01-07T15:27:32;3.70;99.90
1137;DHT22;557;48.466;7.950;2024-01-07T15:30:00;3.70;99.90
1137;DHT22;557;48.466;7.950;2024-01-07T15:32:29;3.60;99.90
1137;DHT22;557;48.466;7.950;2024-01-07T15:34:57;3.60;99.90
1137;DHT22;557;48.466;7.950;2024-01-07T15:37:25;3.60;99.90
1137;DHT22;557;48.466;7.950;2024-01-07T15:39:52;3.50;99.90
1137;DHT22;557;48.466;7.950;2024-01-07T15:42:20;3.50;99.90
1137;DHT22;557;48.466;7.950;2024-01-07T15:44:46;3.50;99.90
1137;DHT22;557;48.466;7.950;2024-01-07T15:47:15;3.50;99.90
1137;DHT22;557;48.466;7.950;2024-01-07T15:49:41;3.50;99.90
1137;DHT22;557;48.466;7.950;2024-01-07T15:52:08;3.50;99.90
1137;DHT22;557;48.466;7.950;2024-01-07T15:54:38;3.50;99.90
1137;DHT22;557;48.466;7.950;2024-01-07T15:57:07;3.50;99.90
1137;DHT22;557;48.466;7.950;2024-01-07T15:59:34;3.40;99.90
1137;DHT22;557;48.466;7.950;2024-01-07T16:02:02;3.40;99.90
1137;DHT22;557;48.466;7.950;2024-01-07T16:04:31;3.40;99.90
1137;DHT22;557;48.466;7.950;2024-01-07T16:06:58;3.40;99.90
1137;DHT22;557;48.466;7.950;2024-01-07T16:09:25;3.40;99.90
1137;DHT22;557;48.466;7.950;2024-01-07T16:11:52;3.40;99.90
1137;DHT22;557;48.466;7.950;2024-01-07T16:14:19;3.40;99.90
1137;DHT22;557;48.466;7.950;2024-01-07T16:16:51;3.40;99.90
1137;DHT22;557;48.466;7.950;2024-01-07T16:19:20;3.40;99.90
1137;DHT22;557;48.466;7.950;2024-01-07T16:21:49;3.30;99.90
1137;DHT22;557;48.466;7.950;2024-01-07T16:24:17;3.30;99.90
1137;DHT22;557;48.466;7.950;2024-01-07T16:26:44;3.30;99.90
1137;DHT22;557;48.466;7.950;2024-01-07T16:29:11;3.30;99.90
1137;DHT22;557;48.466;7.950;2024-01-07T16:31:38;3.20;99.90
1137;DHT22;557;48.466;7.950;2024-01-07T16:34:05;3.20;99.90
1137;DHT22;557;48.466;7.950;2024-01-07T16:36:32;3.20;99.90
1137;DHT22;557;48.466;7.950;2024-01-07T16:39:00;3.20;99.90
1137;DHT22;557;48.466;7.950;2024-01-07T16:41:32;3.20;99.90